createdAt,value
2024-05-09T00:00:36.173Z,100.00
2024-05-09T00:03:06.458Z,100.00
2024-05-09T00:05:33.006Z,100.00
2024-05-09T00:07:59.754Z,100.00
2024-05-09T00:10:34.610Z,100.00
2024-05-09T00:13:04.114Z,100.00
2024-05-09T00:15:30.612Z,100.00
2024-05-09T00:17:57.333Z,100.00
2024-05-09T00:20:28.623Z,100.00
2024-05-09T00:23:02.853Z,100.00
2024-05-09T00:25:29.385Z,100.00
2024-05-09T00:27:55.840Z,100.00
2024-05-09T00:30:31.475Z,100.00
2024-05-09T00:33:01.761Z,100.00
2024-05-09T00:35:28.600Z,100.00
2024-05-09T00:37:55.323Z,100.00
2024-05-09T00:40:30.874Z,100.00
2024-05-09T00:43:05.620Z,100.00
2024-05-09T00:45:33.985Z,100.00
2024-05-09T00:48:03.255Z,100.00
2024-05-09T00:50:36.134Z,100.00
2024-05-09T00:53:06.845Z,100.00
2024-05-09T00:55:35.867Z,100.00
2024-05-09T00:58:05.928Z,100.00
2024-05-09T01:00:38.839Z,100.00
2024-05-09T01:03:12.532Z,100.00
2024-05-09T01:05:41.317Z,100.00
2024-05-09T01:08:08.929Z,100.00
2024-05-09T01:10:36.957Z,100.00
2024-05-09T01:13:07.307Z,100.00
2024-05-09T01:15:35.325Z,100.00
2024-05-09T01:18:11.510Z,100.00
2024-05-09T01:20:42.501Z,100.00
2024-05-09T01:23:15.914Z,100.00
2024-05-09T01:25:47.110Z,100.00
2024-05-09T01:28:14.010Z,100.00
2024-05-09T01:30:40.562Z,100.00
2024-05-09T01:33:09.435Z,100.00
2024-05-09T01:35:37.813Z,100.00
2024-05-09T01:38:04.857Z,100.00
2024-05-09T01:43:00.993Z,100.00
2024-05-09T01:45:27.424Z,100.00
2024-05-09T01:47:54.155Z,100.00
2024-05-09T01:50:33.032Z,100.00
2024-05-09T01:53:04.236Z,100.00
2024-05-09T01:55:30.773Z,100.00
2024-05-09T01:57:57.279Z,100.00
2024-05-09T02:00:33.752Z,100.00
2024-05-09T02:03:15.267Z,100.00
2024-05-09T02:05:52.006Z,100.00
2024-05-09T02:08:20.139Z,100.00
2024-05-09T02:10:48.032Z,100.00
2024-05-09T02:13:15.594Z,100.00
2024-05-09T02:15:42.458Z,100.00
2024-05-09T02:18:09.328Z,100.00
2024-05-09T02:20:38.865Z,100.00
2024-05-09T02:23:09.297Z,100.00
2024-05-09T02:25:35.973Z,100.00
2024-05-09T02:28:02.746Z,100.00
2024-05-09T02:30:38.457Z,100.00
2024-05-09T02:33:16.912Z,100.00
2024-05-09T02:35:46.227Z,100.00
2024-05-09T02:38:13.234Z,100.00
2024-05-09T02:40:40.662Z,100.00
2024-05-09T02:43:12.532Z,100.00
2024-05-09T02:45:40.411Z,100.00
2024-05-09T02:48:10.271Z,100.00
2024-05-09T02:50:39.438Z,100.00
2024-05-09T02:53:08.263Z,100.00
2024-05-09T02:55:35.293Z,100.00
2024-05-09T02:58:03.114Z,100.00
2024-05-09T03:00:38.075Z,100.00
2024-05-09T03:03:08.571Z,100.00
2024-05-09T03:05:36.621Z,100.00
2024-05-09T03:08:03.823Z,100.00
2024-05-09T03:10:35.934Z,100.00
2024-05-09T03:13:13.556Z,100.00
2024-05-09T03:15:41.540Z,100.00
2024-05-09T03:18:09.063Z,100.00
2024-05-09T03:20:36.943Z,100.00
2024-05-09T03:23:05.376Z,100.00
2024-05-09T03:25:32.451Z,100.00
2024-05-09T03:27:59.084Z,100.00
2024-05-09T03:30:34.619Z,100.00
2024-05-09T03:33:14.042Z,100.00
2024-05-09T03:35:41.680Z,100.00
2024-05-09T03:38:08.289Z,100.00
2024-05-09T03:40:35.071Z,100.00
2024-05-09T03:43:01.581Z,100.00
2024-05-09T03:45:28.090Z,100.00
2024-05-09T03:47:54.807Z,100.00
2024-05-09T03:50:29.551Z,100.00
2024-05-09T03:53:01.001Z,100.00
2024-05-09T03:55:27.876Z,100.00
2024-05-09T03:57:54.362Z,100.00
2024-05-09T04:00:35.772Z,100.00
2024-05-09T04:03:12.829Z,100.00
2024-05-09T04:05:41.898Z,100.00
2024-05-09T04:08:10.093Z,100.00
2024-05-09T04:10:39.750Z,100.00
2024-05-09T04:13:06.302Z,100.00
2024-05-09T04:15:32.965Z,100.00
2024-05-09T04:17:59.796Z,100.00
2024-05-09T04:22:58.663Z,100.00
2024-05-09T04:25:25.208Z,100.00
2024-05-09T04:27:54.303Z,100.00
2024-05-09T04:30:30.190Z,100.00
2024-05-09T04:33:03.328Z,100.00
2024-05-09T04:35:29.990Z,100.00
2024-05-09T04:37:56.550Z,100.00
2024-05-09T04:40:30.788Z,100.00
2024-05-09T04:43:00.483Z,100.00
2024-05-09T04:45:27.114Z,100.00
2024-05-09T04:47:58.969Z,100.00
2024-05-09T04:50:34.205Z,100.00
2024-05-09T04:53:05.326Z,100.00
2024-05-09T04:55:35.735Z,100.00
2024-05-09T04:58:02.252Z,100.00
2024-05-09T05:00:36.388Z,100.00
2024-05-09T05:03:07.864Z,100.00
2024-05-09T05:05:38.128Z,100.00
2024-05-09T05:08:05.492Z,100.00
2024-05-09T05:10:37.008Z,100.00
2024-05-09T05:13:04.126Z,100.00
2024-05-09T05:15:30.700Z,100.00
2024-05-09T05:17:57.256Z,100.00
2024-05-09T05:20:30.959Z,100.00
2024-05-09T05:23:00.488Z,100.00
2024-05-09T05:25:27.233Z,100.00
2024-05-09T05:27:53.727Z,100.00
2024-05-09T05:30:29.082Z,100.00
2024-05-09T05:33:03.799Z,100.00
2024-05-09T05:35:30.688Z,100.00
2024-05-09T05:38:02.312Z,100.00
2024-05-09T05:40:36.579Z,100.00
2024-05-09T05:43:08.377Z,100.00
2024-05-09T05:45:38.583Z,100.00
2024-05-09T05:48:35.544Z,100.00
2024-05-09T05:51:12.570Z,100.00
2024-05-09T05:53:41.714Z,100.00
2024-05-09T05:56:11.721Z,100.00
2024-05-09T05:58:38.261Z,100.00
2024-05-09T06:01:05.204Z,100.00
2024-05-09T06:03:31.932Z,100.00
2024-05-09T06:06:05.194Z,100.00
2024-05-09T06:08:31.882Z,100.00
2024-05-09T06:10:58.460Z,100.00
2024-05-09T06:13:25.048Z,100.00
2024-05-09T06:15:51.553Z,100.00
2024-05-09T06:18:30.554Z,100.00
2024-05-09T06:20:57.388Z,100.00
2024-05-09T06:23:26.990Z,100.00
2024-05-09T06:25:53.574Z,100.00
2024-05-09T06:28:20.125Z,100.00
2024-05-09T06:30:46.584Z,100.00
2024-05-09T06:33:15.608Z,100.00
2024-05-09T06:35:47.028Z,100.00
2024-05-09T06:38:14.555Z,100.00
2024-05-09T06:40:43.269Z,100.00
2024-05-09T06:43:16.316Z,100.00
2024-05-09T06:45:47.364Z,100.00
2024-05-09T06:48:14.608Z,100.00
2024-05-09T06:50:41.516Z,100.00
2024-05-09T06:53:08.636Z,100.00
2024-05-09T06:55:35.984Z,100.00
2024-05-09T06:58:05.503Z,100.00
2024-05-09T07:00:38.607Z,100.00
2024-05-09T07:03:12.915Z,100.00
2024-05-09T07:05:41.797Z,100.00
2024-05-09T07:08:08.440Z,100.00
2024-05-09T07:10:36.566Z,100.00
2024-05-09T07:13:08.134Z,100.00
2024-05-09T07:15:37.389Z,100.00
2024-05-09T07:18:10.865Z,100.00
2024-05-09T07:20:38.609Z,100.00
2024-05-09T07:23:06.837Z,100.00
2024-05-09T07:25:36.935Z,100.00
2024-05-09T07:28:05.160Z,100.00
2024-05-09T07:30:34.372Z,100.00
2024-05-09T07:33:03.033Z,100.00
2024-05-09T07:35:30.647Z,100.00
2024-05-09T07:37:57.607Z,100.00
2024-05-09T07:40:32.258Z,100.00
2024-05-09T07:43:09.400Z,100.00
2024-05-09T07:45:48.611Z,100.00
2024-05-09T07:52:37.564Z,100.00
2024-05-09T07:53:47.811Z,100.00
2024-05-09T07:56:18.576Z,100.00
2024-05-09T07:58:46.244Z,100.00
2024-05-09T08:01:15.192Z,100.00
2024-05-09T08:03:42.160Z,100.00
2024-05-09T08:06:08.796Z,100.00
2024-05-09T08:08:35.324Z,100.00
2024-05-09T08:11:02.805Z,100.00
2024-05-09T08:13:29.401Z,100.00
2024-05-09T08:15:58.992Z,100.00
2024-05-09T08:18:28.001Z,100.00
2024-05-09T08:20:55.730Z,100.00
2024-05-09T08:23:24.846Z,100.00
2024-05-09T08:25:51.447Z,100.00
2024-05-09T08:28:21.118Z,100.00
2024-05-09T08:30:47.884Z,100.00
2024-05-09T08:33:14.630Z,100.00
2024-05-09T08:35:41.259Z,100.00
2024-05-09T08:38:11.008Z,100.00
2024-05-09T08:40:42.910Z,100.00
2024-05-09T08:43:13.323Z,100.00
2024-05-09T08:45:50.163Z,100.00
2024-05-09T08:48:19.667Z,100.00
2024-05-09T08:50:52.161Z,100.00
2024-05-09T08:53:21.815Z,100.00
2024-05-09T08:55:54.212Z,100.00
2024-05-09T08:58:21.315Z,100.00
2024-05-09T09:00:49.184Z,100.00
2024-05-09T09:03:24.034Z,100.00
2024-05-09T09:06:08.682Z,100.00
2024-05-09T09:08:41.558Z,100.00
2024-05-09T09:11:08.089Z,100.00
2024-05-09T09:13:37.153Z,100.00
2024-05-09T09:16:13.132Z,100.00
2024-05-09T09:18:44.247Z,100.00
2024-05-09T09:21:10.999Z,100.00
2024-05-09T09:23:39.590Z,100.00
2024-05-09T09:26:06.117Z,100.00
2024-05-09T09:28:36.883Z,100.00
2024-05-09T09:31:03.982Z,100.00
2024-05-09T09:33:43.010Z,100.00
2024-05-09T09:36:11.602Z,100.00
2024-05-09T09:38:39.674Z,100.00
2024-05-09T09:41:10.185Z,100.00
2024-05-09T09:43:37.094Z,100.00
2024-05-09T09:46:11.770Z,100.00
2024-05-09T09:48:40.600Z,100.00
2024-05-09T09:51:08.041Z,100.00
2024-05-09T09:53:34.992Z,100.00
2024-05-09T09:56:03.136Z,100.00
2024-05-09T09:58:32.677Z,100.00
2024-05-09T10:00:59.297Z,100.00
2024-05-09T10:03:26.644Z,100.00
2024-05-09T10:05:57.001Z,97.37
2024-05-09T10:08:24.292Z,94.35
2024-05-09T10:10:54.168Z,96.43
2024-05-09T10:13:21.029Z,93.01
2024-05-09T10:15:52.637Z,90.81
2024-05-09T10:18:19.947Z,92.57
2024-05-09T10:20:46.844Z,89.90
2024-05-09T10:23:27.339Z,89.31
2024-05-09T10:26:02.073Z,89.22
2024-05-09T10:28:29.825Z,91.87
2024-05-09T10:31:09.481Z,87.92
2024-05-09T10:33:50.151Z,90.04
2024-05-09T10:36:23.026Z,88.93
2024-05-09T10:38:50.369Z,89.63
2024-05-09T10:41:20.668Z,89.25
2024-05-09T10:43:47.772Z,90.58
2024-05-09T10:46:14.941Z,89.86
2024-05-09T10:48:44.175Z,87.49
2024-05-09T10:51:11.691Z,87.27
2024-05-09T10:53:46.053Z,84.43
2024-05-09T10:56:16.813Z,90.57
2024-05-09T10:58:43.381Z,89.43
2024-05-09T11:01:10.976Z,87.07
2024-05-09T11:03:38.792Z,80.93
2024-05-09T11:06:08.658Z,81.70
2024-05-09T11:08:36.255Z,84.47
2024-05-09T11:11:05.788Z,85.32
2024-05-09T11:13:33.870Z,87.84
2024-05-09T11:16:01.087Z,85.37
2024-05-09T11:18:33.466Z,87.88
2024-05-09T11:21:02.928Z,91.29
2024-05-09T11:23:29.471Z,87.47
2024-05-09T11:25:57.711Z,87.97
2024-05-09T11:28:26.806Z,88.09
2024-05-09T11:31:05.172Z,90.25
2024-05-09T11:33:31.889Z,94.11
2024-05-09T11:35:58.545Z,96.51
2024-05-09T11:38:25.144Z,100.00
2024-05-09T11:40:53.922Z,91.69
2024-05-09T11:43:20.533Z,89.76
2024-05-09T11:45:47.179Z,89.94
2024-05-09T11:48:13.885Z,92.32
2024-05-09T11:50:42.042Z,100.00
2024-05-09T11:53:08.575Z,100.00
2024-05-09T11:55:35.158Z,100.00
2024-05-09T11:58:06.053Z,100.00
2024-05-09T12:00:37.548Z,100.00
2024-05-09T12:03:05.884Z,100.00
2024-05-09T12:05:34.309Z,100.00
2024-05-09T12:08:01.659Z,100.00
2024-05-09T12:10:34.766Z,100.00
2024-05-09T12:13:04.924Z,100.00
2024-05-09T12:15:33.160Z,100.00
2024-05-09T12:18:02.742Z,100.00
2024-05-09T12:20:36.704Z,100.00
2024-05-09T12:23:09.742Z,100.00
2024-05-09T12:25:37.154Z,100.00
2024-05-09T12:28:03.982Z,100.00
2024-05-09T12:30:36.703Z,100.00
2024-05-09T12:33:14.936Z,100.00
2024-05-09T12:35:44.401Z,100.00
2024-05-09T12:38:13.984Z,100.00
2024-05-09T12:40:40.505Z,100.00
2024-05-09T12:43:11.371Z,100.00
2024-05-09T12:45:47.475Z,100.00
2024-05-09T12:48:16.909Z,100.00
2024-05-09T12:50:44.216Z,100.00
2024-05-09T12:53:11.138Z,100.00
2024-05-09T12:55:44.764Z,100.00
2024-05-09T12:58:22.116Z,100.00
2024-05-09T13:00:51.959Z,100.00
2024-05-09T13:03:18.736Z,100.00
2024-05-09T13:05:48.264Z,100.00
2024-05-09T13:08:25.946Z,100.00
2024-05-09T13:10:52.513Z,100.00
2024-05-09T13:13:19.259Z,100.00
2024-05-09T13:15:46.378Z,100.00
2024-05-09T13:18:21.829Z,100.00
2024-05-09T13:20:51.337Z,100.00
2024-05-09T13:23:17.821Z,100.00
2024-05-09T13:25:47.407Z,100.00
2024-05-09T13:28:17.210Z,100.00
2024-05-09T13:30:43.952Z,100.00
2024-05-09T13:33:12.171Z,100.00
2024-05-09T13:35:47.069Z,100.00
2024-05-09T13:38:21.091Z,100.00
2024-05-09T13:40:48.456Z,100.00
2024-05-09T13:43:15.488Z,100.00
2024-05-09T13:45:42.162Z,100.00
2024-05-09T13:48:09.246Z,100.00
2024-05-09T13:50:36.976Z,100.00
2024-05-09T13:53:06.568Z,100.00
2024-05-09T13:55:34.503Z,100.00
2024-05-09T13:58:01.784Z,100.00
2024-05-09T14:00:41.715Z,100.00
2024-05-09T14:03:14.600Z,100.00
2024-05-09T14:05:41.698Z,100.00
2024-05-09T14:08:08.655Z,100.00
2024-05-09T14:10:35.473Z,100.00
2024-05-09T14:13:02.126Z,100.00
2024-05-09T14:15:28.734Z,100.00
2024-05-09T14:17:58.261Z,100.00
2024-05-09T14:20:31.010Z,100.00
2024-05-09T14:23:00.582Z,100.00
2024-05-09T14:25:28.288Z,100.00
2024-05-09T14:27:58.230Z,100.00
2024-05-09T14:30:33.943Z,100.00
2024-05-09T14:33:11.030Z,100.00
2024-05-09T14:35:38.739Z,100.00
2024-05-09T14:38:07.708Z,100.00
2024-05-09T14:40:41.263Z,100.00
2024-05-09T14:43:15.249Z,100.00
2024-05-09T14:45:43.391Z,100.00
2024-05-09T14:48:11.546Z,100.00
2024-05-09T14:50:40.092Z,100.00
2024-05-09T14:53:09.364Z,100.00
2024-05-09T14:55:37.738Z,100.00
2024-05-09T14:58:09.238Z,100.00
2024-05-09T15:00:42.320Z,100.00
2024-05-09T15:03:13.716Z,100.00
2024-05-09T15:05:40.671Z,100.00
2024-05-09T15:08:11.536Z,100.00
2024-05-09T15:10:38.182Z,100.00
2024-05-09T15:13:07.195Z,100.00
2024-05-09T15:15:35.458Z,100.00
2024-05-09T15:19:23.132Z,100.00
2024-05-09T15:21:32.718Z,100.00
2024-05-09T15:23:59.410Z,100.00
2024-05-09T15:26:29.581Z,100.00
2024-05-09T15:28:57.526Z,100.00
2024-05-09T15:31:24.471Z,100.00
2024-05-09T15:33:54.150Z,100.00
2024-05-09T15:36:21.094Z,100.00
2024-05-09T15:38:50.300Z,100.00
2024-05-09T15:41:16.914Z,100.00
2024-05-09T15:43:43.384Z,100.00
2024-05-09T15:46:10.727Z,100.00
2024-05-09T15:48:38.724Z,100.00
2024-05-09T15:51:09.028Z,100.00
2024-05-09T15:53:35.692Z,100.00
2024-05-09T15:56:02.315Z,100.00
2024-05-09T15:58:28.909Z,100.00
2024-05-09T16:00:55.772Z,100.00
2024-05-09T16:03:31.374Z,100.00
2024-05-09T16:05:58.239Z,100.00
2024-05-09T16:08:24.866Z,100.00
2024-05-09T16:10:51.574Z,100.00
2024-05-09T16:13:18.468Z,100.00
2024-05-09T16:15:46.022Z,100.00
2024-05-09T16:18:13.130Z,100.00
2024-05-09T16:20:42.143Z,100.00
2024-05-09T16:23:10.886Z,100.00
2024-05-09T16:25:46.435Z,100.00
2024-05-09T16:28:13.270Z,100.00
2024-05-09T16:30:43.044Z,100.00
2024-05-09T16:33:12.842Z,100.00
2024-05-09T16:35:40.028Z,100.00
2024-05-09T16:38:07.085Z,100.00
2024-05-09T16:40:38.655Z,100.00
2024-05-09T16:43:08.715Z,100.00
2024-05-09T16:45:36.177Z,100.00
2024-05-09T16:48:03.292Z,100.00
2024-05-09T16:50:33.561Z,100.00
2024-05-09T16:53:02.704Z,100.00
2024-05-09T16:55:29.656Z,100.00
2024-05-09T16:57:57.170Z,100.00
2024-05-09T17:00:36.612Z,100.00
2024-05-09T17:03:14.264Z,100.00
2024-05-09T17:05:42.755Z,100.00
2024-05-09T17:08:09.656Z,100.00
2024-05-09T17:10:36.701Z,100.00
2024-05-09T17:13:04.888Z,100.00
2024-05-09T17:15:33.404Z,100.00
2024-05-09T17:18:01.256Z,100.00
2024-05-09T17:20:33.228Z,100.00
2024-05-09T17:23:03.193Z,100.00
2024-05-09T17:25:29.837Z,100.00
2024-05-09T17:27:56.957Z,100.00
2024-05-09T17:30:32.020Z,100.00
2024-05-09T17:33:05.886Z,100.00
2024-05-09T17:35:32.527Z,100.00
2024-05-09T17:37:59.097Z,100.00
2024-05-09T17:40:32.497Z,100.00
2024-05-09T17:43:02.135Z,100.00
2024-05-09T17:45:28.896Z,100.00
2024-05-09T17:48:00.125Z,100.00
2024-05-09T17:50:31.936Z,100.00
2024-05-09T17:53:05.711Z,100.00
2024-05-09T17:55:32.615Z,100.00
2024-05-09T17:57:59.415Z,100.00
2024-05-09T18:02:55.717Z,100.00
2024-05-09T18:05:25.568Z,100.00
2024-05-09T18:07:52.168Z,100.00
2024-05-09T18:10:25.460Z,100.00
2024-05-09T18:12:56.671Z,100.00
2024-05-09T18:15:23.246Z,100.00
2024-05-09T18:17:50.066Z,100.00
2024-05-09T18:20:24.172Z,100.00
2024-05-09T18:22:59.510Z,100.00
2024-05-09T18:25:26.138Z,100.00
2024-05-09T18:27:52.949Z,100.00
2024-05-09T18:30:28.269Z,100.00
2024-05-09T18:33:07.233Z,100.00
2024-05-09T18:35:35.379Z,100.00
2024-05-09T18:38:05.382Z,100.00
2024-05-09T18:40:37.519Z,100.00
2024-05-09T18:43:07.608Z,100.00
2024-05-09T18:45:36.595Z,100.00
2024-05-09T18:48:04.226Z,100.00
2024-05-09T18:50:35.830Z,100.00
2024-05-09T18:53:06.195Z,100.00
2024-05-09T18:55:33.126Z,100.00
2024-05-09T18:57:59.902Z,100.00
2024-05-09T19:00:33.804Z,100.00
2024-05-09T19:03:04.661Z,100.00
2024-05-09T19:05:32.219Z,100.00
2024-05-09T19:07:59.006Z,100.00
2024-05-09T19:10:28.896Z,100.00
2024-05-09T19:13:00.016Z,100.00
2024-05-09T19:15:26.675Z,100.00
2024-05-09T19:17:53.617Z,100.00
2024-05-09T19:20:28.170Z,100.00
2024-05-09T19:22:58.723Z,100.00
2024-05-09T19:25:25.171Z,100.00
2024-05-09T19:27:51.843Z,100.00
2024-05-09T19:30:25.703Z,100.00
2024-05-09T19:33:04.099Z,100.00
2024-05-09T19:35:30.747Z,100.00
2024-05-09T19:37:57.527Z,100.00
2024-05-09T19:40:30.603Z,100.00
2024-05-09T19:42:59.405Z,100.00
2024-05-09T19:45:31.670Z,100.00
2024-05-09T19:47:59.547Z,100.00
2024-05-09T19:50:32.699Z,100.00
2024-05-09T19:53:07.809Z,100.00
2024-05-09T19:55:34.855Z,100.00
2024-05-09T19:58:08.185Z,100.00
2024-05-09T20:00:40.567Z,100.00
2024-05-09T20:03:18.582Z,100.00
2024-05-09T20:05:46.769Z,100.00
2024-05-09T20:08:13.954Z,100.00
2024-05-09T20:11:04.958Z,100.00
2024-05-09T20:13:31.578Z,100.00
2024-05-09T20:15:58.281Z,100.00
2024-05-09T20:18:24.982Z,100.00
2024-05-09T20:20:54.118Z,100.00
2024-05-09T20:23:20.853Z,100.00
2024-05-09T20:25:47.344Z,100.00
2024-05-09T20:28:13.871Z,100.00
2024-05-09T20:30:40.611Z,100.00
2024-05-09T20:33:08.882Z,100.00
2024-05-09T20:35:37.023Z,100.00
2024-05-09T20:38:04.446Z,100.00
2024-05-09T20:40:36.120Z,100.00
2024-05-09T20:43:08.610Z,100.00
2024-05-09T20:45:35.754Z,100.00
2024-05-09T20:48:02.860Z,100.00
2024-05-09T20:50:37.180Z,100.00
2024-05-09T20:53:14.705Z,100.00
2024-05-09T20:55:43.117Z,100.00
2024-05-09T20:58:10.589Z,100.00
2024-05-09T21:00:43.877Z,100.00
2024-05-09T21:03:13.326Z,100.00
2024-05-09T21:05:43.018Z,100.00
2024-05-09T21:08:09.903Z,100.00
2024-05-09T21:10:37.204Z,100.00
2024-05-09T21:13:04.957Z,100.00
2024-05-09T21:15:32.194Z,100.00
2024-05-09T21:18:01.947Z,100.00
2024-05-09T21:20:31.503Z,100.00
2024-05-09T21:23:00.046Z,100.00
2024-05-09T21:25:26.728Z,100.00
2024-05-09T21:27:53.557Z,100.00
2024-05-09T21:32:50.983Z,100.00
2024-05-09T21:35:18.450Z,100.00
2024-05-09T21:37:45.040Z,100.00
2024-05-09T21:40:16.946Z,100.00
2024-05-09T21:42:50.599Z,100.00
2024-05-09T21:45:18.782Z,100.00
2024-05-09T21:47:45.374Z,100.00
2024-05-09T21:50:22.314Z,100.00
2024-05-09T21:52:53.865Z,100.00
2024-05-09T21:55:20.431Z,100.00
2024-05-09T21:57:46.935Z,100.00
2024-05-09T22:00:20.333Z,100.00
2024-05-09T22:02:51.679Z,100.00
2024-05-09T22:05:18.417Z,100.00
2024-05-09T22:07:45.064Z,100.00
2024-05-09T22:10:19.961Z,100.00
2024-05-09T22:12:52.624Z,100.00
2024-05-09T22:15:19.233Z,100.00
2024-05-09T22:17:45.924Z,100.00
2024-05-09T22:20:21.696Z,100.00
2024-05-09T22:22:52.363Z,100.00
2024-05-09T22:25:19.032Z,100.00
2024-05-09T22:27:45.858Z,100.00
2024-05-09T22:30:20.942Z,100.00
2024-05-09T22:32:50.790Z,100.00
2024-05-09T22:35:17.407Z,100.00
2024-05-09T22:37:43.974Z,100.00
2024-05-09T22:42:40.047Z,100.00
2024-05-09T22:45:07.056Z,100.00
2024-05-09T22:47:33.804Z,100.00
2024-05-09T22:50:00.386Z,100.00
2024-05-09T22:52:26.873Z,100.00
2024-05-09T22:54:53.320Z,100.00
2024-05-09T22:57:20.003Z,100.00
2024-05-09T22:59:46.528Z,100.00
2024-05-09T23:02:13.188Z,100.00
2024-05-09T23:04:39.753Z,100.00
2024-05-09T23:07:07.225Z,100.00
2024-05-09T23:09:33.785Z,100.00
2024-05-09T23:12:00.378Z,100.00
2024-05-09T23:14:26.955Z,100.00
2024-05-09T23:16:53.526Z,100.00
2024-05-09T23:19:20.112Z,100.00
2024-05-09T23:21:46.696Z,100.00
2024-05-09T23:24:13.258Z,100.00
2024-05-09T23:26:44.915Z,100.00
2024-05-09T23:29:11.541Z,100.00
2024-05-09T23:31:40.906Z,100.00
2024-05-09T23:34:07.881Z,100.00
2024-05-09T23:36:34.579Z,100.00
2024-05-09T23:39:01.108Z,100.00
2024-05-09T23:41:27.661Z,100.00
2024-05-09T23:43:54.218Z,100.00
2024-05-09T23:46:20.805Z,100.00
2024-05-09T23:48:47.487Z,100.00
2024-05-09T23:51:14.739Z,100.00
2024-05-09T23:53:45.353Z,100.00
2024-05-09T23:56:15.672Z,100.00
2024-05-09T23:58:42.846Z,100.00
